Metabetchouan, Canada
Current Conditions -  °F | °C
As of 5:28 AM on Thursday 18 Dec 2014 (Local Time) from CYRJ Reporting Station
Light Snow Light Snow  
Wind Chill: 17°   Ceiling: 1500
Heat Index: 25°   Visibility: 8mi
Dew Point: 23°   Wind: 7mph
Humidity: 93%   Direction: 320°NW
Pressure: 29.82"   Gusts: NA
Location:  48.43°N, 71.87°W
Report Text: CYRJ 181028Z 32006KT 8SM -SN OVC015 M04/M05 A2982 RMK SC8 SLP110
Loading
Personal Weather Stations






























Interactive Weather Map New forecast layout! Learn more

10-Day Weather Forecast

Advertisements
Track Severe Weather on mobile